EPWR Airport Information

Runway Information
Runway 12 Length 8202 ft width 197 ft
Elevation 404 ft Threshold 0 ft Heading 116
Runway 30 Length 8202 ft Width 197 ft
Elevation 400 ft Threshold 0 ft Heading 296
Airport Frequencies
Type TWR Name WROCLAW TW Frequency 127.225 MHZ
Airport Navaids
Type NDB Name Wroclaw Frequency 255 KHZ
Type NDB Name Wroclaw Frequency 525 KHZ
Type VOR-DME Name Trzebnica Frequency 113600 KHZ
Airport Weather Information & NOTAM
ADDS - METARS form results

(1957 UTC 21 March 2019)
Data provider http://aviationweather.gov/metar/data/
 
METAR text: EPWR 211930Z VRB01KT CAVOK 06/04 Q1033
Conditions at: EPWR (WROCLAW/STRACHOW, PL) observed 1930 UTC 21 March 2019
Temperature: 6.0°C (43°F)
Dewpoint: 4.0°C (39°F) [RH = 87%]
Pressure (altimeter): 30.50 inches Hg (1033.0 mb)
Winds: variable direction winds at 1 MPH (1 knots; 0.5 m/s)
Visibility: 6 or more miles (10+ km)
Ceiling: ceiling and visibility are OK
Clouds: unknown
Weather: no significant weather observed at this time

METAR text: EPWR 211900Z VRB01KT CAVOK 07/04 Q1033
Conditions at: EPWR (WROCLAW/STRACHOW, PL) observed 1900 UTC 21 March 2019
Temperature: 7.0°C (45°F)
Dewpoint: 4.0°C (39°F) [RH = 81%]
Pressure (altimeter): 30.50 inches Hg (1033.0 mb)
Winds: variable direction winds at 1 MPH (1 knots; 0.5 m/s)
Visibility: 6 or more miles (10+ km)
Ceiling: ceiling and visibility are OK
Clouds: unknown
Weather: no significant weather observed at this time

Forecast for: EPWR (WROCLAW/STRACHOW, PL)
Text: TAF EPWR 211730Z 2118/2218 VRB02KT CAVOK
Forecast period: 1800 UTC 21 March 2019 to 1800 UTC 22 March 2019
Forecast type: FROM: standard forecast or significant change
Winds: variable direction winds at 2 MPH (2 knots; 1.0 m/s)
Visibility: 6 or more miles 10+ km)
Ceiling: unknown
Clouds: missing
Weather: NSW  (no significant weather)
Text: PROB40
Forecast period: 0100 to 0600 UTC 22 March 2019
Forecast type: TEMPORARY: The following changes expected for less than half the time period
Visibility: 2.49 miles (4.01 km)
Ceiling: 1200 feet AGL
Clouds: broken clouds at 1200 feet AGL
Weather: BR  (mist)